createdAt,value
2022-12-04T00:02:11.133Z,33.13
2022-12-04T00:04:37.750Z,32.33
2022-12-04T00:07:04.790Z,33.13
2022-12-04T00:09:31.203Z,31.13
2022-12-04T00:11:58.660Z,31.83
2022-12-04T00:14:25.080Z,32.67
2022-12-04T00:16:51.643Z,32.83
2022-12-04T00:19:18.255Z,33.33
2022-12-04T00:21:45.243Z,33.20
2022-12-04T00:24:12.547Z,34.13
2022-12-04T00:26:39.060Z,33.23
2022-12-04T00:29:05.686Z,34.57
2022-12-04T00:31:32.445Z,32.40
2022-12-04T00:34:00.359Z,33.87
2022-12-04T00:36:29.011Z,34.40
2022-12-04T00:38:56.415Z,35.00
2022-12-04T00:41:25.034Z,35.80
2022-12-04T00:43:52.510Z,35.17
2022-12-04T00:46:19.487Z,35.03
2022-12-04T00:48:46.344Z,35.57
2022-12-04T00:51:21.024Z,35.73
2022-12-04T00:53:48.002Z,33.00
2022-12-04T00:56:18.684Z,34.77
2022-12-04T00:58:45.774Z,35.07
2022-12-04T01:01:18.403Z,33.60
2022-12-04T01:03:45.370Z,33.47
2022-12-04T01:06:25.375Z,33.73
2022-12-04T01:08:54.395Z,33.50
2022-12-04T01:11:22.621Z,33.10
2022-12-04T01:13:49.414Z,33.13
2022-12-04T01:16:17.937Z,32.30
2022-12-04T01:18:44.861Z,33.13
2022-12-04T01:21:12.148Z,33.37
2022-12-04T01:23:38.728Z,34.00
2022-12-04T01:26:05.733Z,34.40
2022-12-04T01:28:32.479Z,33.20
2022-12-04T01:31:06.206Z,32.70
2022-12-04T01:33:35.043Z,32.87
2022-12-04T01:36:05.956Z,34.63
2022-12-04T01:38:33.656Z,33.37
2022-12-04T01:41:00.331Z,33.43
2022-12-04T01:43:28.798Z,34.07
2022-12-04T01:45:57.005Z,33.63
2022-12-04T01:48:52.715Z,33.03
2022-12-04T01:51:25.182Z,33.97
2022-12-04T01:53:55.941Z,32.00
2022-12-04T01:56:27.502Z,32.83
2022-12-04T01:58:58.871Z,34.07
2022-12-04T02:01:29.158Z,32.70
2022-12-04T02:03:55.904Z,33.03
2022-12-04T02:06:22.418Z,33.50
2022-12-04T02:08:48.855Z,33.93
2022-12-04T02:11:45.397Z,33.60
2022-12-04T02:14:46.451Z,35.27
2022-12-04T02:17:19.130Z,32.97
2022-12-04T02:20:04.661Z,32.83
2022-12-04T02:22:45.412Z,34.07
2022-12-04T02:25:52.023Z,33.03
2022-12-04T02:28:46.311Z,32.37
2022-12-04T02:31:19.250Z,30.77
2022-12-04T02:33:54.084Z,31.87
2022-12-04T02:36:28.649Z,32.43
2022-12-04T02:39:10.719Z,32.93
2022-12-04T02:41:46.989Z,30.97
2022-12-04T02:44:23.789Z,31.23
2022-12-04T02:46:57.164Z,30.97
2022-12-04T02:49:37.664Z,31.07
2022-12-04T02:52:10.054Z,29.10
2022-12-04T02:54:41.346Z,30.97
2022-12-04T02:57:13.906Z,31.80
2022-12-04T02:59:45.395Z,31.80
2022-12-04T03:02:23.433Z,31.00
2022-12-04T03:04:51.917Z,31.67
2022-12-04T03:07:26.038Z,30.60
2022-12-04T03:09:59.409Z,30.33
2022-12-04T03:12:50.243Z,29.70
2022-12-04T03:15:23.330Z,29.77
2022-12-04T03:18:01.855Z,30.00
2022-12-04T03:20:32.479Z,29.73
2022-12-04T03:23:09.674Z,28.97
2022-12-04T03:25:47.436Z,28.10
2022-12-04T03:28:32.380Z,29.87
2022-12-04T03:31:05.744Z,29.07
2022-12-04T03:33:41.845Z,28.53
2022-12-04T03:36:18.444Z,28.53
2022-12-04T03:38:54.364Z,28.87
2022-12-04T03:41:27.033Z,27.70
2022-12-04T03:44:13.124Z,28.63
2022-12-04T03:46:54.818Z,27.03
2022-12-04T03:49:31.734Z,28.37
2022-12-04T03:52:16.947Z,26.93
2022-12-04T03:54:53.695Z,27.37
2022-12-04T03:57:27.352Z,27.80
2022-12-04T04:00:08.754Z,28.07
2022-12-04T04:02:39.690Z,27.00
2022-12-04T04:05:09.851Z,28.60
2022-12-04T04:08:18.589Z,29.13
2022-12-04T04:10:45.579Z,27.40
2022-12-04T04:13:35.538Z,28.70
2022-12-04T04:16:24.404Z,29.33
2022-12-04T04:19:11.816Z,29.50
2022-12-04T04:22:07.919Z,29.97
2022-12-04T04:24:34.695Z,28.87
2022-12-04T04:27:01.760Z,29.87
2022-12-04T04:29:28.388Z,30.60
2022-12-04T04:32:03.594Z,31.23
2022-12-04T04:34:57.875Z,29.17
2022-12-04T04:37:30.607Z,29.53
2022-12-04T04:40:05.834Z,30.17
2022-12-04T04:42:48.651Z,29.53
2022-12-04T04:45:25.613Z,30.53
2022-12-04T04:48:00.779Z,31.23
2022-12-04T04:50:28.919Z,30.97
2022-12-04T04:53:01.312Z,30.20
2022-12-04T04:55:28.991Z,30.80
2022-12-04T04:58:07.050Z,30.73
2022-12-04T05:00:33.691Z,31.53
2022-12-04T05:03:00.243Z,32.00
2022-12-04T05:05:26.747Z,31.93
2022-12-04T05:07:53.272Z,31.83
2022-12-04T05:10:19.753Z,32.10
2022-12-04T05:12:46.230Z,33.20
2022-12-04T05:15:12.692Z,34.47
2022-12-04T05:17:39.131Z,33.67
2022-12-04T05:20:06.436Z,33.53
2022-12-04T05:22:34.957Z,32.57
2022-12-04T05:25:02.705Z,33.33
2022-12-04T05:27:30.276Z,34.80
2022-12-04T05:29:58.380Z,35.57
2022-12-04T05:32:27.431Z,34.77
2022-12-04T05:34:55.518Z,34.63
2022-12-04T05:37:23.042Z,34.63
2022-12-04T05:39:49.546Z,34.03
2022-12-04T05:42:16.062Z,33.47
2022-12-04T05:44:42.671Z,36.83
2022-12-04T05:47:09.268Z,35.20
2022-12-04T05:49:36.115Z,37.13
2022-12-04T05:52:04.787Z,33.97
2022-12-04T05:54:31.766Z,35.17
2022-12-04T05:56:58.399Z,36.97
2022-12-04T05:59:24.828Z,34.63
2022-12-04T06:01:51.372Z,35.60
2022-12-04T06:04:17.822Z,36.17
2022-12-04T06:06:44.331Z,35.73
2022-12-04T06:09:11.929Z,36.57
2022-12-04T06:11:39.888Z,37.33
2022-12-04T06:14:08.803Z,36.87
2022-12-04T06:16:38.091Z,34.77
2022-12-04T06:19:11.289Z,34.83
2022-12-04T06:21:40.351Z,35.13
2022-12-04T06:24:07.790Z,34.57
2022-12-04T06:26:34.733Z,34.03
2022-12-04T06:29:02.325Z,36.40
2022-12-04T06:31:29.848Z,33.77
2022-12-04T06:33:57.699Z,34.37
2022-12-04T06:36:24.993Z,36.27
2022-12-04T06:38:54.311Z,34.67
2022-12-04T06:41:21.681Z,34.53
2022-12-04T06:43:48.830Z,36.90
2022-12-04T06:46:18.783Z,35.63
2022-12-04T06:48:45.466Z,35.50
2022-12-04T06:51:15.016Z,35.20
2022-12-04T06:53:42.523Z,34.67
2022-12-04T06:56:12.816Z,34.13
2022-12-04T06:58:39.222Z,33.57
2022-12-04T07:01:08.101Z,34.70
2022-12-04T07:03:34.864Z,33.70
2022-12-04T07:06:16.566Z,35.53
2022-12-04T07:08:45.079Z,33.43
2022-12-04T07:11:12.439Z,34.07
2022-12-04T07:13:39.779Z,33.87
2022-12-04T07:16:08.187Z,34.63
2022-12-04T07:18:36.294Z,34.93
2022-12-04T07:21:12.091Z,33.60
2022-12-04T07:23:38.644Z,33.20
2022-12-04T07:26:10.232Z,34.60
2022-12-04T07:28:37.682Z,33.67
2022-12-04T07:31:09.302Z,33.17
2022-12-04T07:33:36.499Z,31.77
2022-12-04T07:36:05.284Z,33.30
2022-12-04T07:38:32.857Z,32.87
2022-12-04T07:41:00.021Z,32.63
2022-12-04T07:43:29.912Z,31.13
2022-12-04T07:45:59.093Z,32.63
2022-12-04T07:48:30.181Z,32.63
2022-12-04T07:51:07.219Z,33.97
2022-12-04T07:53:34.854Z,33.67
2022-12-04T07:56:02.981Z,31.23
2022-12-04T07:58:29.494Z,32.17
2022-12-04T08:00:56.124Z,32.83
2022-12-04T08:03:22.627Z,32.93
2022-12-04T08:05:49.102Z,32.43
2022-12-04T08:08:15.545Z,32.37
2022-12-04T08:10:42.112Z,31.90
2022-12-04T08:13:08.625Z,33.37
2022-12-04T08:15:35.346Z,32.10
2022-12-04T08:18:01.773Z,29.77
2022-12-04T08:20:28.283Z,32.10
2022-12-04T08:22:54.818Z,31.47
2022-12-04T08:25:21.274Z,31.30
2022-12-04T08:27:47.987Z,31.10
2022-12-04T08:30:14.554Z,30.53
2022-12-04T08:32:41.105Z,31.87
2022-12-04T08:35:08.070Z,29.77
2022-12-04T08:37:35.039Z,30.70
2022-12-04T08:40:02.904Z,32.50
2022-12-04T08:42:29.375Z,31.43
2022-12-04T08:44:55.825Z,28.73
2022-12-04T08:47:22.396Z,30.53
2022-12-04T08:49:48.874Z,29.57
2022-12-04T08:52:15.421Z,30.17
2022-12-04T08:54:41.871Z,29.60
2022-12-04T08:57:08.387Z,30.03
2022-12-04T08:59:35.271Z,30.93
2022-12-04T09:02:01.815Z,29.40
2022-12-04T09:04:28.458Z,31.43
2022-12-04T09:06:54.975Z,32.30
2022-12-04T09:09:21.483Z,30.33
2022-12-04T09:11:48.478Z,30.20
2022-12-04T09:14:14.959Z,32.33
2022-12-04T09:16:41.666Z,31.13
2022-12-04T09:19:08.179Z,30.83
2022-12-04T09:21:34.797Z,31.20
2022-12-04T09:24:01.865Z,32.17
2022-12-04T09:26:31.098Z,31.80
2022-12-04T09:28:59.696Z,31.40
2022-12-04T09:31:26.614Z,32.20
2022-12-04T09:33:53.791Z,32.10
2022-12-04T09:36:20.877Z,34.30
2022-12-04T09:38:52.808Z,31.17
2022-12-04T09:41:38.091Z,33.27
2022-12-04T09:44:32.432Z,32.67
2022-12-04T09:47:00.535Z,33.90
2022-12-04T09:49:48.662Z,33.50
2022-12-04T09:52:40.215Z,31.73
2022-12-04T09:55:14.124Z,33.23
2022-12-04T09:57:49.974Z,32.13
2022-12-04T10:00:19.717Z,33.93
2022-12-04T10:03:04.110Z,34.00
2022-12-04T10:05:55.263Z,32.77
2022-12-04T10:08:37.864Z,33.90
2022-12-04T10:11:24.683Z,33.43
2022-12-04T10:14:31.902Z,34.00
2022-12-04T10:17:32.529Z,33.03
2022-12-04T10:20:33.231Z,33.60
2022-12-04T10:23:14.414Z,35.10
2022-12-04T10:25:42.802Z,34.13
2022-12-04T10:28:23.679Z,36.23
2022-12-04T10:30:52.826Z,34.10
2022-12-04T10:33:37.899Z,34.20
2022-12-04T10:36:06.181Z,33.63
2022-12-04T10:38:39.116Z,35.37
2022-12-04T10:41:17.906Z,35.93
2022-12-04T10:43:46.808Z,34.03
2022-12-04T10:46:18.210Z,35.03
2022-12-04T10:48:48.567Z,35.97
2022-12-04T10:51:21.387Z,35.70
2022-12-04T10:53:49.384Z,35.30
2022-12-04T10:56:24.279Z,36.53
2022-12-04T10:59:05.665Z,34.90
2022-12-04T11:01:34.338Z,35.33
2022-12-04T11:04:09.179Z,37.57
2022-12-04T11:06:35.973Z,35.63
2022-12-04T11:09:04.248Z,36.47
2022-12-04T11:11:34.158Z,34.77
2022-12-04T11:14:07.294Z,34.63
2022-12-04T11:16:48.175Z,35.83
2022-12-04T11:19:26.039Z,35.13
2022-12-04T11:21:58.753Z,35.27
2022-12-04T11:24:25.147Z,35.57
2022-12-04T11:26:52.391Z,36.30
2022-12-04T11:29:21.914Z,34.93
2022-12-04T11:31:54.760Z,37.20
2022-12-04T11:34:25.011Z,33.70
2022-12-04T11:36:57.527Z,36.47
2022-12-04T11:39:35.913Z,36.20
2022-12-04T11:42:12.570Z,36.40
2022-12-04T11:44:40.389Z,35.33
2022-12-04T11:47:17.410Z,35.77
2022-12-04T11:49:44.108Z,35.77
2022-12-04T11:52:35.010Z,37.77
2022-12-04T11:55:09.155Z,35.57
2022-12-04T11:58:13.093Z,36.40
2022-12-04T12:00:51.363Z,36.33
2022-12-04T12:03:26.394Z,35.70
2022-12-04T12:06:27.182Z,34.67
2022-12-04T12:08:53.566Z,35.73
2022-12-04T12:11:27.204Z,34.93
2022-12-04T12:14:14.274Z,35.07
2022-12-04T12:16:49.976Z,35.47
2022-12-04T12:19:39.702Z,35.83
2022-12-04T12:22:26.560Z,36.33
2022-12-04T12:25:17.011Z,33.93
2022-12-04T12:28:15.168Z,36.07
2022-12-04T12:31:19.710Z,34.90
2022-12-04T12:33:51.863Z,33.80
2022-12-04T12:36:21.710Z,35.83
2022-12-04T12:38:56.791Z,34.63
2022-12-04T12:41:34.699Z,34.90
2022-12-04T12:44:06.042Z,35.00
2022-12-04T12:46:48.804Z,36.07
2022-12-04T12:49:15.291Z,34.43
2022-12-04T12:51:58.333Z,36.77
2022-12-04T12:54:53.256Z,37.50
2022-12-04T12:57:33.400Z,35.53
2022-12-04T13:00:22.251Z,36.07
2022-12-04T13:02:58.168Z,33.90
2022-12-04T13:05:33.733Z,37.53
2022-12-04T13:08:21.664Z,35.43
2022-12-04T13:11:02.151Z,36.23
2022-12-04T13:13:34.328Z,38.30
2022-12-04T13:16:11.187Z,34.87
2022-12-04T13:18:46.108Z,37.00
2022-12-04T13:21:26.331Z,36.57
2022-12-04T13:24:23.807Z,34.47
2022-12-04T13:27:03.894Z,34.37
2022-12-04T13:29:39.459Z,35.80
2022-12-04T13:32:27.794Z,35.37
2022-12-04T13:35:13.219Z,35.60
2022-12-04T13:38:05.069Z,36.37
2022-12-04T13:40:44.943Z,35.60
2022-12-04T13:43:14.182Z,37.13
2022-12-04T13:45:41.388Z,36.33
2022-12-04T13:48:09.878Z,35.63
2022-12-04T13:50:39.406Z,36.40
2022-12-04T13:53:06.888Z,36.63
2022-12-04T13:55:36.611Z,35.97
2022-12-04T13:58:12.007Z,36.43
2022-12-04T14:00:44.060Z,34.87
2022-12-04T14:03:30.283Z,36.00
2022-12-04T14:05:56.932Z,36.57
2022-12-04T14:08:25.906Z,34.70
2022-12-04T14:11:04.059Z,35.87
2022-12-04T14:13:42.399Z,35.77
2022-12-04T14:16:29.903Z,34.40
2022-12-04T14:18:59.254Z,35.23
2022-12-04T14:21:26.519Z,36.00
2022-12-04T14:23:53.470Z,36.07
2022-12-04T14:26:48.894Z,36.90
2022-12-04T14:29:39.432Z,36.07
2022-12-04T14:32:13.603Z,35.83
2022-12-04T14:34:40.653Z,34.90
2022-12-04T14:37:17.453Z,35.23
2022-12-04T14:39:48.217Z,36.13
2022-12-04T14:42:21.844Z,37.53
2022-12-04T14:45:00.848Z,35.97
2022-12-04T14:47:55.340Z,35.80
2022-12-04T14:50:41.993Z,36.47
2022-12-04T14:53:26.546Z,35.97
2022-12-04T14:56:17.127Z,35.37
2022-12-04T14:58:44.147Z,36.73
2022-12-04T15:01:28.310Z,36.37
2022-12-04T15:03:59.087Z,35.70
2022-12-04T15:06:28.182Z,36.33
2022-12-04T15:09:17.263Z,37.13
2022-12-04T15:12:09.670Z,37.13
2022-12-04T15:14:44.997Z,38.87
2022-12-04T15:17:12.910Z,36.83
2022-12-04T15:19:40.075Z,37.20
2022-12-04T15:22:28.640Z,36.57
2022-12-04T15:24:55.949Z,37.17
2022-12-04T15:27:30.534Z,36.07
2022-12-04T15:30:00.302Z,37.87
2022-12-04T15:32:28.804Z,38.13
2022-12-04T15:35:00.854Z,36.97
2022-12-04T15:37:31.040Z,37.27
2022-12-04T15:39:58.413Z,37.27
2022-12-04T15:42:29.973Z,35.97
2022-12-04T15:45:08.624Z,35.83
2022-12-04T15:47:53.619Z,36.73
2022-12-04T15:50:19.991Z,35.20
2022-12-04T15:52:53.587Z,36.90
2022-12-04T15:55:22.392Z,37.60
2022-12-04T15:57:59.725Z,35.20
2022-12-04T16:00:28.448Z,36.43
2022-12-04T16:02:56.110Z,36.07
2022-12-04T16:05:22.482Z,37.10
2022-12-04T16:07:57.741Z,36.97
2022-12-04T16:10:30.585Z,38.80
2022-12-04T16:12:59.459Z,40.37
2022-12-04T16:15:36.135Z,41.70
2022-12-04T16:18:05.992Z,37.93
2022-12-04T16:20:38.106Z,36.17
2022-12-04T16:23:05.460Z,36.70
2022-12-04T16:25:32.315Z,38.30
2022-12-04T16:27:59.994Z,36.87
2022-12-04T16:30:28.335Z,35.77
2022-12-04T16:32:54.796Z,36.70
2022-12-04T16:35:21.474Z,36.70
2022-12-04T16:37:48.010Z,37.53
2022-12-04T16:40:15.418Z,35.77
2022-12-04T16:42:43.774Z,36.97
2022-12-04T16:45:24.924Z,38.20
2022-12-04T16:47:51.791Z,36.90
2022-12-04T16:50:18.551Z,35.80
2022-12-04T16:52:45.068Z,35.37
2022-12-04T16:55:40.906Z,37.43
2022-12-04T16:58:08.243Z,35.83
2022-12-04T17:00:36.423Z,36.10
2022-12-04T17:03:04.432Z,38.00
2022-12-04T17:05:33.430Z,36.67
2022-12-04T17:08:00.557Z,37.80
2022-12-04T17:10:27.444Z,37.07
2022-12-04T17:12:54.568Z,35.47
2022-12-04T17:15:21.526Z,38.00
2022-12-04T17:17:48.406Z,37.77
2022-12-04T17:20:17.156Z,37.30
2022-12-04T17:22:43.696Z,36.53
2022-12-04T17:25:11.232Z,38.73
2022-12-04T17:27:38.448Z,36.03
2022-12-04T17:30:06.730Z,36.23
2022-12-04T17:32:34.922Z,38.13
2022-12-04T17:35:03.600Z,34.47
2022-12-04T17:37:32.380Z,34.50
2022-12-04T17:39:58.933Z,34.50
2022-12-04T17:42:25.695Z,33.10
2022-12-04T17:44:52.175Z,35.67
2022-12-04T17:47:18.636Z,35.93
2022-12-04T17:49:45.073Z,37.43
2022-12-04T17:52:11.502Z,37.60
2022-12-04T17:54:38.111Z,35.00
2022-12-04T17:57:05.103Z,36.63
2022-12-04T17:59:31.680Z,35.73
2022-12-04T18:01:58.112Z,34.17
2022-12-04T18:04:25.000Z,34.57
2022-12-04T18:06:52.599Z,33.67
2022-12-04T18:09:19.351Z,35.17
2022-12-04T18:11:47.831Z,33.53
2022-12-04T18:14:17.523Z,34.57
2022-12-04T18:16:53.262Z,34.07
2022-12-04T18:19:22.207Z,32.50
2022-12-04T18:21:49.463Z,33.07
2022-12-04T18:24:16.796Z,34.87
2022-12-04T18:26:45.518Z,34.30
2022-12-04T18:29:15.406Z,33.07
2022-12-04T18:31:42.262Z,34.30
2022-12-04T18:34:08.885Z,34.03
2022-12-04T18:36:39.253Z,34.77
2022-12-04T18:39:11.354Z,34.70
2022-12-04T18:41:38.037Z,35.73
2022-12-04T18:44:05.636Z,33.33
2022-12-04T18:46:33.033Z,33.97
2022-12-04T18:49:00.159Z,33.77
2022-12-04T18:51:31.554Z,34.30
2022-12-04T18:54:00.739Z,33.30
2022-12-04T18:56:29.243Z,32.77
2022-12-04T18:59:00.831Z,33.43
2022-12-04T19:01:28.638Z,31.87
2022-12-04T19:03:58.696Z,33.90
2022-12-04T19:06:32.454Z,33.07
2022-12-04T19:09:00.722Z,35.10
2022-12-04T19:11:28.786Z,33.70
2022-12-04T19:13:55.611Z,33.57
2022-12-04T19:16:22.377Z,34.60
2022-12-04T19:18:48.915Z,34.77
2022-12-04T19:21:16.386Z,34.37
2022-12-04T19:23:48.344Z,32.70
2022-12-04T19:26:14.791Z,32.67
2022-12-04T19:28:41.246Z,33.93
2022-12-04T19:31:14.977Z,31.13
2022-12-04T19:33:41.601Z,30.97
2022-12-04T19:36:08.512Z,34.43
2022-12-04T19:38:35.490Z,34.30
2022-12-04T19:41:12.622Z,32.17
2022-12-04T19:43:41.601Z,32.60
2022-12-04T19:46:10.225Z,33.83
2022-12-04T19:48:39.968Z,33.17
2022-12-04T19:51:12.239Z,34.23
2022-12-04T19:53:41.052Z,32.20
2022-12-04T19:56:15.005Z,33.13
2022-12-04T19:58:42.477Z,33.57
2022-12-04T20:01:12.951Z,33.00
2022-12-04T20:03:39.941Z,31.83
2022-12-04T20:06:09.825Z,32.93
2022-12-04T20:08:38.077Z,34.23
2022-12-04T20:11:07.791Z,33.53
2022-12-04T20:13:38.921Z,33.17
2022-12-04T20:16:11.477Z,34.70
2022-12-04T20:18:39.892Z,36.27
2022-12-04T20:21:11.133Z,34.77
2022-12-04T20:23:39.233Z,33.83
2022-12-04T20:26:07.900Z,33.20
2022-12-04T20:28:34.699Z,33.20
2022-12-04T20:31:02.256Z,34.87
2022-12-04T20:33:28.708Z,35.73
2022-12-04T20:35:55.465Z,36.67
2022-12-04T20:38:21.934Z,36.20
2022-12-04T20:40:48.381Z,35.23
2022-12-04T20:43:14.836Z,37.07
2022-12-04T20:45:41.467Z,34.17
2022-12-04T20:48:08.468Z,35.27
2022-12-04T20:50:36.142Z,35.93
2022-12-04T20:53:07.609Z,34.97
2022-12-04T20:55:34.172Z,35.50
2022-12-04T20:58:00.639Z,35.23
2022-12-04T21:00:28.635Z,35.90
2022-12-04T21:02:55.125Z,35.93
2022-12-04T21:05:21.938Z,34.23
2022-12-04T21:07:48.393Z,34.43
2022-12-04T21:10:15.007Z,35.40
2022-12-04T21:13:00.238Z,36.20
2022-12-04T21:15:48.230Z,34.50
2022-12-04T21:18:14.747Z,35.60
2022-12-04T21:20:41.224Z,35.33
2022-12-04T21:23:07.836Z,35.63
2022-12-04T21:25:34.234Z,33.63
2022-12-04T21:28:03.003Z,34.57
2022-12-04T21:30:29.524Z,35.40
2022-12-04T21:32:55.991Z,34.10
2022-12-04T21:35:22.452Z,33.87
2022-12-04T21:37:48.866Z,34.20
2022-12-04T21:40:15.446Z,34.53
2022-12-04T21:42:43.780Z,35.53
2022-12-04T21:45:10.607Z,34.37
2022-12-04T21:47:37.500Z,34.77
2022-12-04T21:50:05.552Z,35.50
2022-12-04T21:52:32.456Z,34.23
2022-12-04T21:54:58.927Z,34.17
2022-12-04T21:57:27.423Z,33.47
2022-12-04T21:59:54.004Z,35.37
2022-12-04T22:02:21.182Z,35.17
2022-12-04T22:04:47.807Z,33.73
2022-12-04T22:07:14.290Z,34.33
2022-12-04T22:09:42.404Z,36.73
2022-12-04T22:12:33.195Z,34.87
2022-12-04T22:14:56.082Z,34.77
2022-12-04T22:17:22.535Z,35.83
2022-12-04T22:19:48.991Z,34.03
2022-12-04T22:22:15.440Z,34.57
2022-12-04T22:24:42.079Z,36.47
2022-12-04T22:27:14.741Z,32.47
2022-12-04T22:30:02.133Z,34.40
2022-12-04T22:32:27.924Z,34.87
2022-12-04T22:34:54.372Z,34.17
2022-12-04T22:37:20.788Z,35.57
2022-12-04T22:39:47.329Z,34.47
2022-12-04T22:42:13.794Z,36.33
2022-12-04T22:44:40.239Z,36.10
2022-12-04T22:47:06.950Z,35.20
2022-12-04T22:49:33.564Z,34.80
2022-12-04T22:52:00.021Z,33.57
2022-12-04T22:54:27.907Z,35.33
2022-12-04T22:56:54.407Z,37.47
2022-12-04T22:59:20.877Z,35.53
2022-12-04T23:01:47.295Z,35.60
2022-12-04T23:04:13.730Z,35.97
2022-12-04T23:06:40.213Z,34.67
2022-12-04T23:09:12.639Z,33.43
2022-12-04T23:11:40.154Z,33.33
2022-12-04T23:14:09.113Z,34.93
2022-12-04T23:16:38.356Z,35.20
2022-12-04T23:19:07.518Z,34.60
2022-12-04T23:21:34.729Z,35.23
2022-12-04T23:24:01.361Z,34.43
2022-12-04T23:26:32.584Z,34.57
2022-12-04T23:28:59.484Z,34.57
2022-12-04T23:31:26.012Z,34.47
2022-12-04T23:33:52.635Z,34.87
2022-12-04T23:36:19.388Z,35.00
2022-12-04T23:38:46.356Z,34.73
2022-12-04T23:41:18.356Z,34.40
2022-12-04T23:43:45.410Z,34.17
2022-12-04T23:46:14.739Z,34.07
2022-12-04T23:48:43.849Z,33.63
2022-12-04T23:51:12.696Z,33.23
2022-12-04T23:53:39.183Z,34.33
2022-12-04T23:56:23.779Z,35.27
2022-12-04T23:58:52.681Z,32.73
